Time;durP1;ratioP1;P1;durP2;ratioP2;P2;SDS_P1;SDS_P2;PMS_P1;PMS_P2;Temp;Humidity;BMP_temperature;BMP_pressure;BME280_temperature;BME280_humidity;BME280_pressure;Samples;Min_cycle;Max_cycle;Signal;HPM_P1;HPM_P2
2023/05/09 00:00:55;;;;;;;9.00;7.10;;;12.80;99.90;;;;;;4991626;28;20458;-70
2023/05/09 00:03:21;;;;;;;8.90;7.30;;;12.80;99.90;;;;;;4990978;28;20823;-70
2023/05/09 00:05:49;;;;;;;7.50;6.70;;;12.70;99.90;;;;;;4978856;28;20478;-70
2023/05/09 00:08:16;;;;;;;8.23;6.87;;;12.70;99.90;;;;;;4979898;28;20503;-69
2023/05/09 00:10:43;;;;;;;8.70;6.93;;;12.70;99.90;;;;;;4971798;28;20482;-70
2023/05/09 00:13:09;;;;;;;9.73;7.77;;;12.70;99.90;;;;;;4978208;28;20680;-70
2023/05/09 00:15:37;;;;;;;8.70;7.38;;;12.70;99.90;;;;;;4983462;28;20483;-70
2023/05/09 00:18:04;;;;;;;9.07;7.83;;;12.70;99.90;;;;;;5043531;23;20225;-96
2023/05/09 00:20:32;;;;;;;10.50;7.37;;;12.70;99.90;;;;;;5018641;28;20443;-95
2023/05/09 00:22:59;;;;;;;10.87;8.00;;;12.80;99.90;;;;;;5019379;28;20461;-94
2023/05/09 00:25:26;;;;;;;10.40;8.30;;;12.80;99.90;;;;;;5019303;28;20509;-95
2023/05/09 00:27:53;;;;;;;9.17;7.50;;;12.80;99.90;;;;;;5019189;28;20458;-94
2023/05/09 00:30:20;;;;;;;8.77;7.72;;;12.80;99.90;;;;;;5019355;28;20477;-96
2023/05/09 00:32:48;;;;;;;10.03;8.37;;;12.80;99.90;;;;;;5019234;28;20177;-96
2023/05/09 00:35:15;;;;;;;10.40;7.60;;;12.80;99.90;;;;;;5019324;28;20447;-96
2023/05/09 00:37:42;;;;;;;9.43;7.43;;;12.80;99.90;;;;;;5019352;28;20474;-96
2023/05/09 00:40:09;;;;;;;8.77;7.10;;;12.80;99.90;;;;;;5019207;28;20449;-96
2023/05/09 00:42:36;;;;;;;8.67;7.20;;;12.80;99.90;;;;;;5019164;28;20211;-96
2023/05/09 00:45:03;;;;;;;9.50;7.50;;;12.80;99.90;;;;;;5018391;28;20465;-96
2023/05/09 00:47:30;;;;;;;13.90;9.60;;;12.80;99.90;;;;;;5018548;28;20541;-94
2023/05/09 00:49:59;;;;;;;10.07;8.00;;;12.80;99.90;;;;;;5018590;28;20442;-95
2023/05/09 00:52:26;;;;;;;11.70;8.60;;;12.80;99.90;;;;;;5018828;28;20193;-96
2023/05/09 00:54:54;;;;;;;9.30;8.27;;;12.90;99.90;;;;;;5018497;28;20438;-96
2023/05/09 00:57:21;;;;;;;11.10;8.25;;;12.90;99.90;;;;;;5018235;28;20493;-95
2023/05/09 00:59:47;;;;;;;11.90;9.63;;;12.90;99.90;;;;;;5018046;28;20214;-95
2023/05/09 01:02:15;;;;;;;11.10;8.68;;;12.80;99.90;;;;;;5018723;28;20434;-95
2023/05/09 01:04:43;;;;;;;11.90;8.55;;;12.80;99.90;;;;;;5018382;28;20274;-95
2023/05/09 01:07:22;;;;;;;9.75;8.35;;;12.80;99.90;;;;;;5018513;28;20219;-94
2023/05/09 01:09:59;;;;;;;9.30;7.40;;;12.80;99.90;;;;;;5018329;28;20198;-95
2023/05/09 01:12:33;;;;;;;9.17;7.63;;;12.80;99.90;;;;;;5018416;28;20456;-95
2023/05/09 01:15:05;;;;;;;13.97;8.93;;;12.70;99.90;;;;;;5018201;28;20518;-94
2023/05/09 01:17:39;;;;;;;10.80;7.87;;;12.80;99.90;;;;;;5017843;28;20541;-94
2023/05/09 01:20:14;;;;;;;9.80;7.90;;;12.70;99.90;;;;;;5017434;28;20435;-94
2023/05/09 01:22:47;;;;;;;8.27;6.55;;;12.70;99.90;;;;;;5018226;28;20225;-94
2023/05/09 01:25:38;;;;;;;10.80;7.57;;;12.70;99.90;;;;;;5018351;28;20460;-95
2023/05/09 01:28:13;;;;;;;9.52;7.57;;;12.70;99.90;;;;;;5018105;28;20222;-95
2023/05/09 01:30:45;;;;;;;12.45;9.02;;;12.80;99.90;;;;;;5017812;28;20218;-94
2023/05/09 01:33:16;;;;;;;10.50;8.80;;;12.80;99.90;;;;;;5017728;28;20191;-95
2023/05/09 01:35:46;;;;;;;10.63;8.00;;;12.80;99.90;;;;;;5017810;28;20476;-96
2023/05/09 01:38:19;;;;;;;10.63;8.85;;;12.70;99.90;;;;;;5017709;28;20273;-95
2023/05/09 01:40:51;;;;;;;14.00;9.43;;;12.70;99.90;;;;;;5017905;28;20194;-96
2023/05/09 01:43:19;;;;;;;11.40;8.30;;;12.70;99.90;;;;;;5017781;28;20469;-95
2023/05/09 01:45:50;;;;;;;11.23;8.50;;;12.70;99.90;;;;;;5017935;28;20457;-96
2023/05/09 01:48:18;;;;;;;15.00;10.13;;;12.70;99.90;;;;;;5017879;28;20286;-94
2023/05/09 01:50:45;;;;;;;10.75;8.18;;;12.70;99.90;;;;;;5017385;28;20226;-94
2023/05/09 01:53:13;;;;;;;15.17;9.80;;;12.60;99.90;;;;;;5017525;28;20195;-96
2023/05/09 01:55:41;;;;;;;12.07;8.32;;;12.60;99.90;;;;;;5018241;28;20462;-94
2023/05/09 01:58:09;;;;;;;14.30;10.40;;;12.60;99.90;;;;;;5021574;28;20246;-95
2023/05/09 02:00:37;;;;;;;13.05;9.70;;;12.60;99.90;;;;;;5021444;28;20183;-96
2023/05/09 02:03:06;;;;;;;13.20;9.27;;;12.50;99.90;;;;;;5021409;28;20202;-95
2023/05/09 02:05:34;;;;;;;9.80;8.50;;;12.50;99.90;;;;;;5021117;28;20233;-96
2023/05/09 02:08:01;;;;;;;11.50;8.77;;;12.40;99.90;;;;;;5020980;28;20917;-95
2023/05/09 02:10:30;;;;;;;10.17;8.40;;;12.40;99.90;;;;;;5021023;28;20457;-95
2023/05/09 02:12:57;;;;;;;11.05;9.15;;;12.40;99.90;;;;;;5020531;28;20513;-94
2023/05/09 02:15:25;;;;;;;10.95;8.68;;;12.30;99.90;;;;;;5021263;28;20254;-95
2023/05/09 02:17:51;;;;;;;11.60;9.20;;;12.30;99.90;;;;;;5020607;28;20219;-95
2023/05/09 02:20:20;;;;;;;11.10;9.63;;;12.30;99.90;;;;;;5020607;28;20202;-96
2023/05/09 02:22:47;;;;;;;11.93;9.00;;;12.40;99.90;;;;;;5020540;28;20493;-94
2023/05/09 02:25:15;;;;;;;11.97;10.57;;;12.40;99.90;;;;;;5020153;28;20205;-95
2023/05/09 02:27:44;;;;;;;11.67;9.20;;;12.50;99.90;;;;;;5020088;28;20485;-94
2023/05/09 02:30:15;;;;;;;14.20;9.17;;;12.60;99.90;;;;;;5020798;28;20473;-95
2023/05/09 02:32:45;;;;;;;15.27;10.40;;;12.50;99.90;;;;;;5020646;28;20458;-95
2023/05/09 02:35:15;;;;;;;14.27;9.88;;;12.60;99.90;;;;;;5020231;28;20469;-95
2023/05/09 02:37:45;;;;;;;14.60;10.50;;;12.60;99.90;;;;;;5019497;28;20230;-95
2023/05/09 02:40:13;;;;;;;16.55;10.98;;;12.60;99.90;;;;;;5019166;28;20462;-94
2023/05/09 02:42:40;;;;;;;15.50;11.27;;;12.60;99.90;;;;;;5018640;28;20213;-95
2023/05/09 02:45:09;;;;;;;13.30;10.07;;;12.60;99.90;;;;;;5018745;28;20450;-95
2023/05/09 02:47:36;;;;;;;11.68;8.40;;;12.60;99.90;;;;;;5018320;28;20478;-95
2023/05/09 02:50:04;;;;;;;13.53;9.77;;;12.60;99.90;;;;;;5018658;28;20227;-94
2023/05/09 02:52:30;;;;;;;15.03;9.37;;;12.50;99.90;;;;;;5020399;28;20446;-96
2023/05/09 02:54:59;;;;;;;12.20;9.03;;;12.50;99.90;;;;;;5020957;28;20446;-95
2023/05/09 02:57:26;;;;;;;11.15;9.15;;;12.50;99.90;;;;;;5021031;28;20565;-96
2023/05/09 02:59:52;;;;;;;11.95;9.43;;;12.40;99.90;;;;;;5020652;28;20259;-95
2023/05/09 03:02:19;;;;;;;12.97;9.43;;;12.40;99.90;;;;;;5021016;28;20229;-96
2023/05/09 03:04:46;;;;;;;13.07;10.60;;;12.40;99.90;;;;;;5020581;28;20442;-96
2023/05/09 03:07:13;;;;;;;11.70;9.32;;;12.40;99.90;;;;;;5020101;28;20218;-96
2023/05/09 03:09:39;;;;;;;11.65;9.48;;;12.40;99.90;;;;;;5020786;28;20175;-95
2023/05/09 03:12:08;;;;;;;13.63;10.13;;;12.40;99.90;;;;;;5020865;28;20197;-95
2023/05/09 03:14:35;;;;;;;11.98;9.60;;;12.40;99.90;;;;;;5020658;28;20201;-96
2023/05/09 03:17:02;;;;;;;14.27;9.00;;;12.30;99.90;;;;;;5020451;28;20270;-95
2023/05/09 03:19:28;;;;;;;14.38;11.00;;;12.30;99.90;;;;;;5020325;28;20221;-95
2023/05/09 03:21:55;;;;;;;14.90;10.55;;;12.30;99.90;;;;;;5020568;28;20251;-95
2023/05/09 03:24:22;;;;;;;13.35;10.43;;;12.40;99.90;;;;;;5019115;28;20262;-95
2023/05/09 03:26:48;;;;;;;16.35;11.52;;;12.40;99.90;;;;;;5016708;28;20191;-95
2023/05/09 03:29:17;;;;;;;19.00;11.55;;;12.30;99.90;;;;;;5019969;28;20217;-95
2023/05/09 03:31:43;;;;;;;18.60;12.80;;;12.30;99.90;;;;;;5031552;23;20321;-69
2023/05/09 03:34:13;;;;;;;16.55;10.80;;;12.30;99.90;;;;;;5002995;28;20643;-69
2023/05/09 03:36:41;;;;;;;15.10;10.48;;;12.30;99.90;;;;;;5003282;28;20223;-68
2023/05/09 03:39:08;;;;;;;15.70;12.77;;;12.30;99.90;;;;;;4998271;28;20227;-69
2023/05/09 03:41:36;;;;;;;17.48;11.65;;;12.30;99.90;;;;;;4998417;28;20214;-69
2023/05/09 03:44:03;;;;;;;16.70;11.80;;;12.20;99.90;;;;;;4999312;28;20989;-69
2023/05/09 03:46:31;;;;;;;15.65;11.30;;;12.20;99.90;;;;;;4997834;28;20590;-69
2023/05/09 03:48:57;;;;;;;18.67;13.02;;;12.20;99.90;;;;;;4996278;28;20250;-69
2023/05/09 03:51:25;;;;;;;22.02;12.15;;;12.20;99.90;;;;;;5001839;28;20203;-69
2023/05/09 03:53:52;;;;;;;17.92;13.00;;;12.20;99.90;;;;;;4999863;28;20203;-69
2023/05/09 03:56:18;;;;;;;15.68;11.30;;;12.20;99.90;;;;;;4997622;28;20225;-69
2023/05/09 03:58:45;;;;;;;16.38;11.07;;;12.20;99.90;;;;;;4999211;28;20685;-69
2023/05/09 04:01:12;;;;;;;16.02;10.05;;;12.20;99.90;;;;;;4997644;28;20203;-69
2023/05/09 04:03:40;;;;;;;16.08;11.77;;;12.20;99.90;;;;;;4996165;28;20225;-68
2023/05/09 04:06:07;;;;;;;15.00;10.40;;;12.20;99.90;;;;;;5000085;28;20274;-69
2023/05/09 04:08:34;;;;;;;14.52;11.32;;;12.20;99.90;;;;;;4999740;28;20463;-69
2023/05/09 04:11:01;;;;;;;15.15;10.73;;;12.10;99.90;;;;;;4999639;28;20282;-69
2023/05/09 04:13:28;;;;;;;13.23;9.95;;;12.10;99.90;;;;;;4997503;28;20572;-69
2023/05/09 04:15:55;;;;;;;14.43;9.93;;;12.10;99.90;;;;;;5084707;23;20247;-70
2023/05/09 04:18:22;;;;;;;15.68;10.85;;;12.00;99.90;;;;;;5000122;28;20219;-68
2023/05/09 04:20:50;;;;;;;15.25;10.10;;;12.10;99.90;;;;;;5000792;28;20702;-68
2023/05/09 04:23:16;;;;;;;12.55;10.05;;;12.10;99.90;;;;;;4992530;28;20199;-69
2023/05/09 04:25:43;;;;;;;14.27;9.00;;;12.00;99.90;;;;;;4993898;28;20237;-69
2023/05/09 04:28:10;;;;;;;12.87;9.13;;;12.00;99.90;;;;;;5005055;28;20227;-68
2023/05/09 04:30:37;;;;;;;13.57;9.30;;;11.90;99.90;;;;;;4996454;28;20473;-68
2023/05/09 04:33:04;;;;;;;13.52;10.00;;;11.90;99.90;;;;;;4992643;28;20199;-69
2023/05/09 04:35:30;;;;;;;10.32;8.32;;;11.90;99.90;;;;;;4991594;28;20294;-69
2023/05/09 04:37:58;;;;;;;13.85;9.55;;;11.90;99.90;;;;;;4992454;28;20219;-69
2023/05/09 04:40:25;;;;;;;12.40;9.02;;;11.90;99.90;;;;;;4994400;28;20210;-69
2023/05/09 04:42:52;;;;;;;13.77;10.23;;;11.90;99.90;;;;;;4990022;28;20203;-68
2023/05/09 04:45:19;;;;;;;13.23;9.68;;;11.90;99.90;;;;;;4990983;28;20206;-68
2023/05/09 04:47:45;;;;;;;11.88;9.52;;;11.90;99.90;;;;;;4993471;28;20195;-68
2023/05/09 04:50:13;;;;;;;14.93;10.45;;;12.00;99.90;;;;;;4993103;28;20671;-68
2023/05/09 04:52:39;;;;;;;14.23;9.77;;;12.00;99.90;;;;;;4992292;28;20300;-67
2023/05/09 04:55:08;;;;;;;14.63;9.50;;;12.10;99.90;;;;;;4992161;28;20211;-68
2023/05/09 04:57:35;;;;;;;14.25;10.07;;;12.20;99.90;;;;;;4993188;28;20226;-69
2023/05/09 05:00:02;;;;;;;16.17;10.32;;;12.30;99.90;;;;;;4993257;28;20257;-69
2023/05/09 05:02:29;;;;;;;11.43;9.00;;;12.30;99.90;;;;;;4993190;28;20203;-69
2023/05/09 05:04:55;;;;;;;12.47;9.53;;;12.30;99.90;;;;;;4995623;28;20206;-69
2023/05/09 05:07:22;;;;;;;12.70;8.93;;;12.40;99.90;;;;;;4995639;28;20495;-68
2023/05/09 05:09:49;;;;;;;11.23;7.97;;;12.50;99.90;;;;;;4993479;28;20203;-69
2023/05/09 05:12:17;;;;;;;11.63;8.82;;;12.60;99.90;;;;;;4993987;28;20199;-69
2023/05/09 05:14:44;;;;;;;10.97;8.07;;;12.70;99.90;;;;;;4994652;28;20697;-70
2023/05/09 05:17:10;;;;;;;11.30;8.60;;;12.70;99.90;;;;;;4994703;28;20486;-69
2023/05/09 05:19:37;;;;;;;12.00;8.73;;;12.80;99.90;;;;;;4994018;28;20508;-70
2023/05/09 05:22:04;;;;;;;11.20;8.23;;;12.80;99.90;;;;;;4992569;28;20458;-68
2023/05/09 05:24:30;;;;;;;14.32;9.60;;;12.80;99.90;;;;;;4993599;28;20199;-70
2023/05/09 05:26:57;;;;;;;10.67;8.47;;;12.80;99.90;;;;;;4992245;28;20227;-68
2023/05/09 05:29:25;;;;;;;11.03;9.03;;;12.90;99.90;;;;;;4995488;28;20847;-68
2023/05/09 05:31:52;;;;;;;12.03;9.20;;;13.00;99.90;;;;;;4995003;28;20990;-68
2023/05/09 05:34:18;;;;;;;11.07;8.27;;;13.10;99.90;;;;;;4995583;28;20533;-68
2023/05/09 05:36:46;;;;;;;10.55;7.68;;;13.00;99.90;;;;;;4994945;28;20853;-68
2023/05/09 05:39:13;;;;;;;13.00;9.90;;;13.10;99.90;;;;;;4995442;28;20215;-68
2023/05/09 05:41:39;;;;;;;11.93;9.40;;;13.20;99.90;;;;;;4995301;28;21027;-68
2023/05/09 05:44:06;;;;;;;14.00;10.00;;;13.30;99.90;;;;;;4995307;28;20466;-67
2023/05/09 05:46:34;;;;;;;15.83;10.30;;;13.30;99.90;;;;;;4995999;28;20505;-68
2023/05/09 05:49:01;;;;;;;14.30;10.77;;;13.40;99.90;;;;;;4995082;28;20457;-68
2023/05/09 05:51:28;;;;;;;14.83;9.93;;;13.50;99.90;;;;;;4995122;28;20458;-68
2023/05/09 05:53:54;;;;;;;12.40;9.20;;;13.60;99.90;;;;;;4994695;28;20473;-68
2023/05/09 05:56:22;;;;;;;12.43;9.40;;;13.60;99.90;;;;;;4996036;28;20497;-68
2023/05/09 05:58:48;;;;;;;12.07;9.33;;;13.60;99.90;;;;;;4994594;28;20672;-68
2023/05/09 06:01:15;;;;;;;10.90;9.20;;;13.60;99.90;;;;;;4995624;28;20462;-68
2023/05/09 06:03:43;;;;;;;10.23;8.87;;;13.60;99.90;;;;;;4995127;28;20465;-68
2023/05/09 06:06:10;;;;;;;12.00;8.20;;;13.70;99.90;;;;;;4995197;28;20486;-68
2023/05/09 06:08:37;;;;;;;11.30;8.40;;;13.80;99.90;;;;;;4995401;28;20881;-67
2023/05/09 06:11:04;;;;;;;12.00;9.63;;;14.00;99.90;;;;;;4986449;28;20490;-68
2023/05/09 06:13:31;;;;;;;12.30;9.70;;;14.10;99.90;;;;;;4994149;28;20462;-68
2023/05/09 06:15:58;;;;;;;13.33;9.90;;;14.20;99.90;;;;;;4993688;28;20485;-68
2023/05/09 06:18:25;;;;;;;12.20;9.57;;;14.40;99.90;;;;;;5025164;23;20485;-92
2023/05/09 06:20:54;;;;;;;14.00;10.23;;;14.40;99.90;;;;;;5011931;28;20465;-92
2023/05/09 06:23:36;;;;;;;13.87;10.10;;;14.50;99.90;;;;;;5011295;28;21027;-92
2023/05/09 06:26:36;;;;;;;14.20;10.47;;;14.60;99.90;;;;;;5015675;28;20468;-92
2023/05/09 06:29:13;;;;;;;16.37;10.60;;;14.60;99.90;;;;;;5000133;28;20470;-92
2023/05/09 06:31:47;;;;;;;15.33;10.63;;;14.60;99.90;;;;;;5000992;28;20549;-92
2023/05/09 06:34:32;;;;;;;13.97;10.77;;;14.70;99.90;;;;;;5000639;28;20465;-93
2023/05/09 06:37:01;;;;;;;13.17;10.90;;;14.60;99.90;;;;;;5000518;28;20486;-92
2023/05/09 06:39:27;;;;;;;15.13;11.50;;;14.60;99.90;;;;;;5001224;28;20585;-93
2023/05/09 06:41:54;;;;;;;13.90;10.50;;;14.60;99.90;;;;;;5005236;28;20470;-92
2023/05/09 06:44:27;;;;;;;13.60;10.73;;;14.60;99.90;;;;;;5005976;28;20983;-93
2023/05/09 06:46:56;;;;;;;11.30;9.30;;;14.50;99.90;;;;;;5004879;28;20476;-92
2023/05/09 06:49:23;;;;;;;13.90;10.63;;;14.50;99.90;;;;;;5007385;28;20489;-93
2023/05/09 06:51:50;;;;;;;13.53;8.70;;;14.50;99.90;;;;;;5009849;28;20472;-93
2023/05/09 06:54:29;;;;;;;12.63;9.20;;;14.60;99.90;;;;;;5049722;28;20488;-93
2023/05/09 06:56:56;;;;;;;11.90;8.83;;;14.80;99.90;;;;;;5058899;28;20440;-95
2023/05/09 06:59:23;;;;;;;13.20;9.27;;;14.90;99.90;;;;;;5059766;28;20551;-96
2023/05/09 07:01:53;;;;;;;11.60;8.47;;;14.90;99.90;;;;;;5060308;28;20471;-94
2023/05/09 07:04:52;;;;;;;14.90;10.17;;;15.10;99.90;;;;;;5055117;28;20486;-94
2023/05/09 07:07:36;;;;;;;9.90;8.40;;;15.20;99.90;;;;;;5042874;28;20460;-93
2023/05/09 07:10:23;;;;;;;11.53;9.03;;;15.20;99.90;;;;;;5043443;28;20487;-93
2023/05/09 07:12:59;;;;;;;11.97;9.07;;;15.20;99.90;;;;;;5042652;28;20490;-93
2023/05/09 07:18:10;;;;;;;13.17;10.00;;;15.40;99.90;;;;;;5050928;28;20502;-94
2023/05/09 07:20:37;;;;;;;12.63;9.77;;;15.50;99.90;;;;;;5053777;28;20468;-93
2023/05/09 07:23:47;;;;;;;15.17;10.90;;;15.70;99.90;;;;;;5055010;28;20544;-93
2023/05/09 07:26:15;;;;;;;12.27;9.53;;;15.90;99.90;;;;;;5054409;28;20526;-93
2023/05/09 07:28:42;;;;;;;16.97;11.90;;;16.20;99.90;;;;;;5053752;28;20571;-94
2023/05/09 07:31:09;;;;;;;14.20;11.10;;;16.20;99.90;;;;;;5046339;28;20518;-93
2023/05/09 07:33:36;;;;;;;12.57;9.80;;;16.30;99.90;;;;;;5047234;28;20654;-93
2023/05/09 07:36:03;;;;;;;12.30;8.57;;;16.40;99.90;;;;;;5047652;28;20547;-93
2023/05/09 07:38:30;;;;;;;12.90;9.80;;;16.40;99.90;;;;;;5050293;28;20491;-94
2023/05/09 07:40:57;;;;;;;13.43;9.80;;;16.30;99.90;;;;;;5049955;28;20456;-94
2023/05/09 07:43:26;;;;;;;11.90;10.10;;;16.40;99.90;;;;;;5051061;28;20555;-94
2023/05/09 07:45:52;;;;;;;14.20;11.30;;;16.40;99.90;;;;;;5054224;28;20468;-94
2023/05/09 07:48:20;;;;;;;15.17;10.90;;;16.40;99.90;;;;;;5055776;28;20539;-94
2023/05/09 07:50:46;;;;;;;15.37;10.80;;;16.50;99.90;;;;;;5058073;28;20536;-95
2023/05/09 07:53:13;;;;;;;12.57;10.00;;;16.60;99.90;;;;;;5057229;28;20456;-94
2023/05/09 07:55:40;;;;;;;13.57;10.77;;;16.70;99.90;;;;;;5054819;28;20459;-93
2023/05/09 07:58:07;;;;;;;12.00;10.03;;;16.90;99.90;;;;;;5054290;28;20518;-94
2023/05/09 08:00:36;;;;;;;15.37;11.43;;;17.10;99.90;;;;;;5054213;28;20488;-94
2023/05/09 08:03:03;;;;;;;11.97;9.47;;;17.20;99.90;;;;;;5055776;28;20543;-93
2023/05/09 08:05:30;;;;;;;15.30;10.23;;;17.50;99.90;;;;;;5053982;28;20479;-93
2023/05/09 08:10:38;;;;;;;12.27;9.17;;;17.70;99.90;;;;;;5054948;28;20447;-93
2023/05/09 08:13:05;;;;;;;11.80;8.70;;;17.90;99.90;;;;;;5051848;28;20476;-93
2023/05/09 08:15:32;;;;;;;12.17;9.67;;;17.90;99.90;;;;;;5050109;28;20453;-92
2023/05/09 08:18:00;;;;;;;10.30;8.70;;;17.90;99.90;;;;;;5054653;28;20480;-94
2023/05/09 08:20:27;;;;;;;10.33;8.80;;;17.90;99.90;;;;;;5053556;28;20503;-94
2023/05/09 08:23:02;;;;;;;10.80;8.50;;;18.00;99.90;;;;;;5055466;28;20736;-94
2023/05/09 08:25:29;;;;;;;8.97;7.63;;;18.20;99.90;;;;;;5057632;28;20436;-93
2023/05/09 08:27:56;;;;;;;8.97;7.50;;;18.50;99.90;;;;;;5057033;28;20499;-94
2023/05/09 08:30:28;;;;;;;9.37;7.43;;;18.70;99.90;;;;;;5056598;28;20460;-94
2023/05/09 08:32:55;;;;;;;11.57;9.13;;;18.90;99.90;;;;;;5042296;28;20456;-94
2023/05/09 08:35:23;;;;;;;9.63;8.00;;;19.10;99.90;;;;;;5040921;28;20471;-93
2023/05/09 08:37:51;;;;;;;9.13;8.23;;;19.20;99.90;;;;;;5038992;28;20484;-93
2023/05/09 08:40:18;;;;;;;10.13;8.77;;;19.00;99.90;;;;;;5039466;28;21005;-92
2023/05/09 08:42:45;;;;;;;9.47;8.03;;;19.00;99.90;;;;;;5040015;28;20449;-92
2023/05/09 08:45:15;;;;;;;9.20;6.80;;;19.00;99.90;;;;;;5039431;28;20464;-93
2023/05/09 08:47:42;;;;;;;9.40;7.73;;;19.10;99.90;;;;;;5039832;28;20456;-93
2023/05/09 08:50:13;;;;;;;10.10;7.70;;;19.10;99.90;;;;;;5039459;28;20484;-92
2023/05/09 08:52:42;;;;;;;8.50;6.83;;;19.00;99.90;;;;;;5040082;28;20459;-93
2023/05/09 08:55:10;;;;;;;6.90;6.20;;;19.00;99.90;;;;;;5039647;28;20460;-92
2023/05/09 08:57:47;;;;;;;9.60;6.87;;;19.00;99.90;;;;;;5039181;28;20536;-92
2023/05/09 09:00:16;;;;;;;8.10;6.33;;;18.90;99.90;;;;;;5039474;28;20487;-92
2023/05/09 09:05:54;;;;;;;5.30;4.80;;;18.70;99.90;;;;;;5038753;28;20523;-94
2023/05/09 09:08:23;;;;;;;5.73;4.57;;;19.00;99.90;;;;;;5038336;28;20477;-93
2023/05/09 09:10:50;;;;;;;6.77;4.53;;;19.20;99.90;;;;;;5038246;28;20555;-93
2023/05/09 09:13:18;;;;;;;5.03;4.53;;;19.00;99.90;;;;;;5038101;28;20467;-93
2023/05/09 09:15:46;;;;;;;4.87;4.37;;;18.90;99.90;;;;;;5038594;28;21056;-92
2023/05/09 09:18:19;;;;;;;6.17;5.07;;;18.80;99.90;;;;;;5038117;28;20480;-93
2023/05/09 09:20:51;;;;;;;5.00;4.50;;;19.00;99.90;;;;;;5037757;28;20526;-93
2023/05/09 09:23:19;;;;;;;5.37;4.60;;;19.50;99.90;;;;;;5036879;28;20496;-93
2023/05/09 09:25:48;;;;;;;6.70;5.80;;;20.20;99.90;;;;;;5035098;28;20464;-93
2023/05/09 09:28:15;;;;;;;6.70;5.60;;;20.90;99.90;;;;;;5035003;28;20484;-93
2023/05/09 09:30:47;;;;;;;7.10;6.40;;;21.10;99.90;;;;;;5034627;28;20467;-92
2023/05/09 09:33:20;;;;;;;7.27;6.50;;;21.50;99.90;;;;;;5034223;28;20468;-94
2023/05/09 09:35:48;;;;;;;6.70;5.50;;;21.60;99.90;;;;;;5034582;28;20468;-93
2023/05/09 09:38:15;;;;;;;6.67;5.73;;;21.30;99.90;;;;;;5034568;28;20491;-91
2023/05/09 09:40:53;;;;;;;6.10;5.07;;;21.30;99.90;;;;;;5036643;28;20463;-92
2023/05/09 09:43:20;;;;;;;5.80;5.20;;;21.30;99.90;;;;;;5037153;28;20467;-92
2023/05/09 09:45:50;;;;;;;7.00;4.90;;;21.50;99.90;;;;;;5036084;28;20961;-92
2023/05/09 09:48:17;;;;;;;4.50;4.10;;;21.80;99.90;;;;;;5035727;28;20546;-91
2023/05/09 09:50:47;;;;;;;5.60;4.53;;;21.70;99.90;;;;;;5036544;28;20487;-92
2023/05/09 09:53:14;;;;;;;5.10;4.00;;;21.70;99.90;;;;;;5034363;28;20470;-92
2023/05/09 09:55:52;;;;;;;4.30;3.90;;;21.80;99.90;;;;;;5034640;28;20471;-92
2023/05/09 09:58:37;;;;;;;4.93;4.50;;;22.10;99.90;;;;;;5035379;28;20486;-94
2023/05/09 10:01:08;;;;;;;5.70;5.13;;;22.40;99.90;;;;;;5036557;28;20491;-93
2023/05/09 10:03:36;;;;;;;6.40;5.20;;;22.20;99.90;;;;;;5036570;28;21023;-92
2023/05/09 10:13:18;;;;;;;8.73;4.77;;;21.60;99.90;;;;;;4992110;28;20522;-94
2023/05/09 10:22:36;;;;;;;7.90;5.20;;;20.60;99.90;;;;;;5043072;23;20940;-70
2023/05/09 10:25:06;;;;;;;6.20;5.20;;;20.60;99.90;;;;;;5033212;28;20469;-69
2023/05/09 10:27:36;;;;;;;6.87;5.40;;;20.60;99.90;;;;;;5014496;28;20505;-70
2023/05/09 10:30:09;;;;;;;6.37;5.77;;;20.70;99.90;;;;;;5013323;28;20481;-68
2023/05/09 10:32:43;;;;;;;6.87;5.57;;;20.90;99.90;;;;;;5013529;28;20465;-70
2023/05/09 10:35:12;;;;;;;6.70;5.53;;;20.90;99.90;;;;;;5029802;28;20472;-69
2023/05/09 10:37:40;;;;;;;6.63;5.87;;;21.10;99.90;;;;;;5013836;28;20492;-70
2023/05/09 10:40:08;;;;;;;7.37;5.20;;;21.00;99.90;;;;;;5013513;28;20457;-69
2023/05/09 10:42:36;;;;;;;8.00;6.47;;;20.60;99.90;;;;;;5013612;28;20504;-69
2023/05/09 10:45:07;;;;;;;5.87;4.87;;;20.40;99.90;;;;;;5013150;28;20465;-70
2023/05/09 10:47:34;;;;;;;5.50;5.00;;;20.30;99.90;;;;;;5013413;28;20503;-70
2023/05/09 10:50:02;;;;;;;5.67;5.17;;;20.10;99.90;;;;;;5013392;28;20845;-69
2023/05/09 10:52:33;;;;;;;5.53;4.83;;;20.10;99.90;;;;;;5012830;28;20979;-70
2023/05/09 10:55:01;;;;;;;8.37;5.33;;;20.50;99.90;;;;;;5020014;28;20491;-70
2023/05/09 10:57:29;;;;;;;6.07;4.70;;;20.60;99.90;;;;;;5011912;28;20485;-69
2023/05/09 10:59:59;;;;;;;6.07;5.20;;;20.60;99.90;;;;;;5021402;28;20972;-69
2023/05/09 11:02:31;;;;;;;4.93;4.20;;;20.60;99.90;;;;;;5013255;28;20465;-69
2023/05/09 11:05:14;;;;;;;6.03;4.90;;;20.80;99.90;;;;;;5019240;28;21027;-68
2023/05/09 11:07:42;;;;;;;4.40;3.97;;;20.60;99.90;;;;;;5033242;28;20466;-69
2023/05/09 11:10:10;;;;;;;4.33;3.93;;;20.60;99.90;;;;;;5032678;28;20861;-69
2023/05/09 11:12:53;;;;;;;5.47;4.70;;;20.70;99.90;;;;;;5032331;28;20561;-68
2023/05/09 11:15:21;;;;;;;5.10;4.53;;;21.00;99.90;;;;;;5031980;28;20471;-70
2023/05/09 11:17:51;;;;;;;4.60;4.03;;;21.50;99.90;;;;;;5032861;28;20456;-69
2023/05/09 11:20:27;;;;;;;4.77;4.27;;;21.70;99.90;;;;;;5032270;28;20543;-69
2023/05/09 11:22:57;;;;;;;2.97;2.70;;;22.30;99.90;;;;;;5024900;28;20515;-70
2023/05/09 11:25:27;;;;;;;2.50;2.30;;;22.60;99.90;;;;;;5012647;28;20471;-69
2023/05/09 11:28:00;;;;;;;2.60;2.40;;;22.60;99.90;;;;;;5012694;28;20462;-69
2023/05/09 11:30:38;;;;;;;2.70;2.50;;;23.20;99.90;;;;;;5004868;28;20492;-69
2023/05/09 11:33:21;;;;;;;4.13;3.80;;;23.60;99.90;;;;;;5020695;28;20463;-69
2023/05/09 11:36:08;;;;;;;3.30;3.00;;;23.80;99.90;;;;;;5012547;28;20520;-69
2023/05/09 11:38:41;;;;;;;2.80;2.60;;;24.30;99.90;;;;;;5012330;28;20498;-69
2023/05/09 11:41:09;;;;;;;3.17;2.87;;;24.60;99.90;;;;;;5021980;28;21010;-70
2023/05/09 11:43:36;;;;;;;4.93;2.80;;;24.30;99.90;;;;;;5031906;28;21025;-69
2023/05/09 11:46:04;;;;;;;2.90;2.60;;;24.30;99.90;;;;;;5031587;28;20857;-69
2023/05/09 11:48:37;;;;;;;2.13;1.90;;;24.50;99.90;;;;;;5025028;28;20549;-69
2023/05/09 11:51:04;;;;;;;4.10;2.53;;;24.40;99.90;;;;;;5022908;28;20488;-70
2023/05/09 11:53:32;;;;;;;2.53;2.20;;;24.30;99.90;;;;;;5011641;28;20469;-70
2023/05/09 11:56:02;;;;;;;2.40;2.20;;;24.40;99.90;;;;;;5012265;28;20496;-69
2023/05/09 11:58:29;;;;;;;3.07;2.50;;;24.40;99.90;;;;;;5019525;28;20485;-69
2023/05/09 12:00:57;;;;;;;2.33;2.07;;;24.40;99.90;;;;;;5020352;28;20457;-70
2023/05/09 12:03:25;;;;;;;2.33;2.13;;;24.30;99.90;;;;;;5019949;28;20915;-70
2023/05/09 12:05:55;;;;;;;1.90;1.70;;;24.20;99.90;;;;;;5019024;28;20491;-69
2023/05/09 12:08:23;;;;;;;2.13;1.90;;;24.00;99.90;;;;;;5021733;28;20498;-69
2023/05/09 12:10:50;;;;;;;1.77;1.67;;;23.60;99.90;;;;;;5011900;28;20539;-69
2023/05/09 12:13:18;;;;;;;2.20;2.00;;;23.50;99.90;;;;;;5011155;28;20469;-69
2023/05/09 12:15:44;;;;;;;1.90;1.80;;;23.10;99.90;;;;;;5012058;28;20487;-69
2023/05/09 12:20:43;;;;;;;2.03;1.93;;;22.60;99.90;;;;;;5025066;28;20478;-67
2023/05/09 12:23:13;;;;;;;2.07;1.87;;;22.70;99.90;;;;;;5030816;28;20454;-66
2023/05/09 12:25:39;;;;;;;1.90;1.77;;;22.90;99.90;;;;;;5032090;28;20478;-67
2023/05/09 12:28:06;;;;;;;2.20;2.00;;;23.00;99.90;;;;;;5031768;28;20960;-67
2023/05/09 12:30:33;;;;;;;1.80;1.70;;;23.00;99.90;;;;;;5027609;28;20491;-67
2023/05/09 12:33:00;;;;;;;2.03;1.83;;;23.10;99.90;;;;;;5019906;28;20471;-67
2023/05/09 12:35:27;;;;;;;1.83;1.60;;;23.00;99.90;;;;;;5033968;28;21099;-67
2023/05/09 12:37:59;;;;;;;2.23;2.03;;;22.60;99.90;;;;;;5034734;28;20484;-67
2023/05/09 12:40:27;;;;;;;1.80;1.70;;;22.50;99.90;;;;;;5032968;28;20468;-67
2023/05/09 12:42:58;;;;;;;2.20;1.90;;;22.50;99.90;;;;;;5033707;28;20462;-67
2023/05/09 12:45:25;;;;;;;1.83;1.73;;;22.10;99.90;;;;;;5033042;28;20480;-67
2023/05/09 12:47:53;;;;;;;2.13;1.93;;;22.00;99.90;;;;;;5033662;28;20461;-67
2023/05/09 12:50:20;;;;;;;2.50;2.20;;;21.90;99.90;;;;;;5032193;28;20484;-67
2023/05/09 12:52:51;;;;;;;1.90;1.80;;;21.80;99.90;;;;;;5033056;28;20834;-67
2023/05/09 12:55:19;;;;;;;4.00;2.40;;;21.50;99.90;;;;;;5051286;28;20463;-67
2023/05/09 12:57:58;;;;;;;2.40;2.20;;;21.60;99.90;;;;;;5052938;28;20554;-68
2023/05/09 13:00:24;;;;;;;2.30;2.10;;;21.70;99.90;;;;;;5052252;28;20965;-67
2023/05/09 13:02:51;;;;;;;1.83;1.73;;;21.90;99.90;;;;;;5053250;28;20480;-67
2023/05/09 13:05:19;;;;;;;2.60;2.20;;;21.90;99.90;;;;;;5051324;28;20481;-67
2023/05/09 13:07:47;;;;;;;2.10;1.80;;;21.80;99.90;;;;;;5052736;28;20463;-67
2023/05/09 13:10:17;;;;;;;2.30;2.10;;;21.90;99.90;;;;;;5050642;28;20486;-68
2023/05/09 13:12:46;;;;;;;1.60;1.50;;;22.10;99.90;;;;;;5050690;28;20487;-67